sensor_id;sensor_type;location;lat;lon;timestamp;temperature;humidity
18880;DHT22;9572;52.378;13.404;2023-12-20T00:00:35;6.60;99.90
18880;DHT22;9572;52.378;13.404;2023-12-20T00:03:03;6.70;99.90
18880;DHT22;9572;52.378;13.404;2023-12-20T00:05:30;6.70;99.90
18880;DHT22;9572;52.378;13.404;2023-12-20T00:07:58;6.60;99.90
18880;DHT22;9572;52.378;13.404;2023-12-20T00:10:24;6.60;99.90
18880;DHT22;9572;52.378;13.404;2023-12-20T00:12:54;6.60;99.90
18880;DHT22;9572;52.378;13.404;2023-12-20T00:15:20;6.60;99.90
18880;DHT22;9572;52.378;13.404;2023-12-20T00:17:47;6.60;99.90
18880;DHT22;9572;52.378;13.404;2023-12-20T00:20:14;6.70;99.90
18880;DHT22;9572;52.378;13.404;2023-12-20T00:22:41;6.60;99.90
18880;DHT22;9572;52.378;13.404;2023-12-20T00:25:08;6.60;99.90
18880;DHT22;9572;52.378;13.404;2023-12-20T00:27:35;6.70;99.90
18880;DHT22;9572;52.378;13.404;2023-12-20T00:30:04;6.70;99.90
18880;DHT22;9572;52.378;13.404;2023-12-20T00:32:31;6.70;99.90
18880;DHT22;9572;52.378;13.404;2023-12-20T00:34:58;6.70;99.90
18880;DHT22;9572;52.378;13.404;2023-12-20T00:37:25;6.70;99.90
18880;DHT22;9572;52.378;13.404;2023-12-20T00:39:52;6.70;99.90
18880;DHT22;9572;52.378;13.404;2023-12-20T00:42:19;6.70;99.90
18880;DHT22;9572;52.378;13.404;2023-12-20T00:44:45;6.70;99.90
18880;DHT22;9572;52.378;13.404;2023-12-20T00:47:14;6.70;99.90
18880;DHT22;9572;52.378;13.404;2023-12-20T00:49:41;6.70;99.90
18880;DHT22;9572;52.378;13.404;2023-12-20T00:52:08;6.70;99.90
18880;DHT22;9572;52.378;13.404;2023-12-20T00:54:35;6.60;99.90
18880;DHT22;9572;52.378;13.404;2023-12-20T00:57:02;6.60;99.90
18880;DHT22;9572;52.378;13.404;2023-12-20T00:59:29;6.60;99.90
18880;DHT22;9572;52.378;13.404;2023-12-20T01:01:56;6.60;99.90
18880;DHT22;9572;52.378;13.404;2023-12-20T01:04:24;6.70;99.90
18880;DHT22;9572;52.378;13.404;2023-12-20T01:06:52;6.70;99.90
18880;DHT22;9572;52.378;13.404;2023-12-20T01:09:19;6.70;99.90
18880;DHT22;9572;52.378;13.404;2023-12-20T01:11:49;6.70;99.90
18880;DHT22;9572;52.378;13.404;2023-12-20T01:14:15;6.60;99.90
18880;DHT22;9572;52.378;13.404;2023-12-20T01:16:42;6.70;99.90
18880;DHT22;9572;52.378;13.404;2023-12-20T01:19:09;6.70;99.90
18880;DHT22;9572;52.378;13.404;2023-12-20T01:21:37;6.60;99.90
18880;DHT22;9572;52.378;13.404;2023-12-20T01:24:05;6.70;99.90
18880;DHT22;9572;52.378;13.404;2023-12-20T01:26:32;6.60;99.90
18880;DHT22;9572;52.378;13.404;2023-12-20T01:28:59;6.60;99.90
18880;DHT22;9572;52.378;13.404;2023-12-20T01:31:26;6.60;99.90
18880;DHT22;9572;52.378;13.404;2023-12-20T01:33:53;6.70;99.90
18880;DHT22;9572;52.378;13.404;2023-12-20T01:36:20;6.60;99.90
18880;DHT22;9572;52.378;13.404;2023-12-20T01:38:49;6.60;99.90
18880;DHT22;9572;52.378;13.404;2023-12-20T01:41:16;6.70;99.90
18880;DHT22;9572;52.378;13.404;2023-12-20T01:43:43;6.70;99.90
18880;DHT22;9572;52.378;13.404;2023-12-20T01:46:11;6.70;99.90
18880;DHT22;9572;52.378;13.404;2023-12-20T01:48:38;6.60;99.90
18880;DHT22;9572;52.378;13.404;2023-12-20T01:51:05;6.70;99.90
18880;DHT22;9572;52.378;13.404;2023-12-20T01:53:33;6.70;99.90
18880;DHT22;9572;52.378;13.404;2023-12-20T01:56:02;6.60;99.90
18880;DHT22;9572;52.378;13.404;2023-12-20T01:58:29;6.60;99.90
18880;DHT22;9572;52.378;13.404;2023-12-20T02:00:56;6.60;99.90
18880;DHT22;9572;52.378;13.404;2023-12-20T02:03:23;6.60;99.90
18880;DHT22;9572;52.378;13.404;2023-12-20T02:05:51;6.70;99.90
18880;DHT22;9572;52.378;13.404;2023-12-20T02:08:35;6.70;99.90
18880;DHT22;9572;52.378;13.404;2023-12-20T02:11:04;6.60;99.90
18880;DHT22;9572;52.378;13.404;2023-12-20T02:13:31;6.60;99.90
18880;DHT22;9572;52.378;13.404;2023-12-20T02:15:58;6.60;99.90
18880;DHT22;9572;52.378;13.404;2023-12-20T02:18:24;6.60;99.90
18880;DHT22;9572;52.378;13.404;2023-12-20T02:20:51;6.70;99.90
18880;DHT22;9572;52.378;13.404;2023-12-20T02:23:20;6.70;99.90
18880;DHT22;9572;52.378;13.404;2023-12-20T02:25:47;6.70;99.90
18880;DHT22;9572;52.378;13.404;2023-12-20T02:28:14;6.70;99.90
18880;DHT22;9572;52.378;13.404;2023-12-20T02:30:42;6.70;99.90
18880;DHT22;9572;52.378;13.404;2023-12-20T02:33:10;6.70;99.90
18880;DHT22;9572;52.378;13.404;2023-12-20T02:35:38;6.70;99.90
18880;DHT22;9572;52.378;13.404;2023-12-20T02:38:05;6.70;99.90
18880;DHT22;9572;52.378;13.404;2023-12-20T02:40:33;6.70;99.90
18880;DHT22;9572;52.378;13.404;2023-12-20T02:43:00;6.70;99.90
18880;DHT22;9572;52.378;13.404;2023-12-20T02:45:27;6.80;99.90
18880;DHT22;9572;52.378;13.404;2023-12-20T02:47:54;6.80;99.90
18880;DHT22;9572;52.378;13.404;2023-12-20T02:50:21;6.90;99.90
18880;DHT22;9572;52.378;13.404;2023-12-20T02:52:48;6.90;99.90
18880;DHT22;9572;52.378;13.404;2023-12-20T02:55:15;7.00;99.90
18880;DHT22;9572;52.378;13.404;2023-12-20T02:57:43;6.90;99.90
18880;DHT22;9572;52.378;13.404;2023-12-20T03:00:10;7.00;99.90
18880;DHT22;9572;52.378;13.404;2023-12-20T03:02:37;7.00;99.90
18880;DHT22;9572;52.378;13.404;2023-12-20T03:05:05;6.80;99.90
18880;DHT22;9572;52.378;13.404;2023-12-20T03:07:32;6.90;99.90
18880;DHT22;9572;52.378;13.404;2023-12-20T03:09:59;6.90;99.90
18880;DHT22;9572;52.378;13.404;2023-12-20T03:12:25;6.90;99.90
18880;DHT22;9572;52.378;13.404;2023-12-20T03:14:54;7.00;99.90
18880;DHT22;9572;52.378;13.404;2023-12-20T03:17:20;7.00;99.90
18880;DHT22;9572;52.378;13.404;2023-12-20T03:19:47;7.00;99.90
18880;DHT22;9572;52.378;13.404;2023-12-20T03:22:15;7.00;99.90
18880;DHT22;9572;52.378;13.404;2023-12-20T03:24:42;7.00;99.90
18880;DHT22;9572;52.378;13.404;2023-12-20T03:27:08;6.90;99.90
18880;DHT22;9572;52.378;13.404;2023-12-20T03:29:35;7.00;99.90
18880;DHT22;9572;52.378;13.404;2023-12-20T03:32:04;7.10;99.90
18880;DHT22;9572;52.378;13.404;2023-12-20T03:34:31;7.00;99.90
18880;DHT22;9572;52.378;13.404;2023-12-20T03:36:58;7.00;99.90
18880;DHT22;9572;52.378;13.404;2023-12-20T03:39:25;7.00;99.90
18880;DHT22;9572;52.378;13.404;2023-12-20T03:41:51;7.10;99.90
18880;DHT22;9572;52.378;13.404;2023-12-20T03:44:18;7.10;99.90
18880;DHT22;9572;52.378;13.404;2023-12-20T03:46:46;7.00;99.90
18880;DHT22;9572;52.378;13.404;2023-12-20T03:49:16;7.00;99.90
18880;DHT22;9572;52.378;13.404;2023-12-20T03:51:42;7.00;99.90
18880;DHT22;9572;52.378;13.404;2023-12-20T03:54:09;7.00;99.90
18880;DHT22;9572;52.378;13.404;2023-12-20T03:56:36;7.00;99.90
18880;DHT22;9572;52.378;13.404;2023-12-20T03:59:03;7.10;99.90
18880;DHT22;9572;52.378;13.404;2023-12-20T04:01:30;7.00;99.90
18880;DHT22;9572;52.378;13.404;2023-12-20T04:03:57;7.00;99.90
18880;DHT22;9572;52.378;13.404;2023-12-20T04:06:25;7.00;99.90
18880;DHT22;9572;52.378;13.404;2023-12-20T04:08:52;7.00;99.90
18880;DHT22;9572;52.378;13.404;2023-12-20T04:11:19;7.00;99.90
18880;DHT22;9572;52.378;13.404;2023-12-20T04:13:45;6.90;99.90
18880;DHT22;9572;52.378;13.404;2023-12-20T04:16:12;7.00;99.90
18880;DHT22;9572;52.378;13.404;2023-12-20T04:18:39;7.00;99.90
18880;DHT22;9572;52.378;13.404;2023-12-20T04:21:06;7.00;99.90
18880;DHT22;9572;52.378;13.404;2023-12-20T04:23:35;7.00;99.90
18880;DHT22;9572;52.378;13.404;2023-12-20T04:26:03;7.00;99.90
18880;DHT22;9572;52.378;13.404;2023-12-20T04:28:30;7.00;99.90
18880;DHT22;9572;52.378;13.404;2023-12-20T04:30:57;7.00;99.90
18880;DHT22;9572;52.378;13.404;2023-12-20T04:33:23;7.00;99.90
18880;DHT22;9572;52.378;13.404;2023-12-20T04:35:50;7.00;99.90
18880;DHT22;9572;52.378;13.404;2023-12-20T04:38:17;6.90;99.90
18880;DHT22;9572;52.378;13.404;2023-12-20T04:40:46;6.90;99.90
18880;DHT22;9572;52.378;13.404;2023-12-20T04:43:13;6.90;99.90
18880;DHT22;9572;52.378;13.404;2023-12-20T04:45:40;6.90;99.90
18880;DHT22;9572;52.378;13.404;2023-12-20T04:48:07;6.80;99.90
18880;DHT22;9572;52.378;13.404;2023-12-20T04:50:34;6.80;99.90
18880;DHT22;9572;52.378;13.404;2023-12-20T04:53:01;6.80;99.90
18880;DHT22;9572;52.378;13.404;2023-12-20T04:55:28;6.80;99.90
18880;DHT22;9572;52.378;13.404;2023-12-20T04:57:56;6.60;99.90
18880;DHT22;9572;52.378;13.404;2023-12-20T05:00:23;6.60;99.90
18880;DHT22;9572;52.378;13.404;2023-12-20T05:02:50;6.60;99.90
18880;DHT22;9572;52.378;13.404;2023-12-20T05:05:17;6.40;99.90
18880;DHT22;9572;52.378;13.404;2023-12-20T05:07:44;6.40;99.90
18880;DHT22;9572;52.378;13.404;2023-12-20T05:10:11;6.30;99.90
18880;DHT22;9572;52.378;13.404;2023-12-20T05:12:38;6.30;99.90
18880;DHT22;9572;52.378;13.404;2023-12-20T05:15:08;6.30;99.90
18880;DHT22;9572;52.378;13.404;2023-12-20T05:17:35;6.30;99.90
18880;DHT22;9572;52.378;13.404;2023-12-20T05:20:02;6.20;99.90
18880;DHT22;9572;52.378;13.404;2023-12-20T05:22:29;6.30;99.90
18880;DHT22;9572;52.378;13.404;2023-12-20T05:24:56;6.30;99.90
18880;DHT22;9572;52.378;13.404;2023-12-20T05:27:23;6.40;99.90
18880;DHT22;9572;52.378;13.404;2023-12-20T05:29:50;6.30;99.90
18880;DHT22;9572;52.378;13.404;2023-12-20T05:32:18;6.30;99.90
18880;DHT22;9572;52.378;13.404;2023-12-20T05:34:46;6.40;99.90
18880;DHT22;9572;52.378;13.404;2023-12-20T05:37:13;6.30;99.90
18880;DHT22;9572;52.378;13.404;2023-12-20T05:39:40;6.30;99.90
18880;DHT22;9572;52.378;13.404;2023-12-20T05:42:07;6.30;99.90
18880;DHT22;9572;52.378;13.404;2023-12-20T05:44:34;6.20;99.90
18880;DHT22;9572;52.378;13.404;2023-12-20T05:47:02;6.20;99.90
18880;DHT22;9572;52.378;13.404;2023-12-20T05:49:30;6.10;99.90
18880;DHT22;9572;52.378;13.404;2023-12-20T05:51:57;6.00;99.90
18880;DHT22;9572;52.378;13.404;2023-12-20T05:54:24;6.00;99.90
18880;DHT22;9572;52.378;13.404;2023-12-20T05:56:51;5.90;99.90
18880;DHT22;9572;52.378;13.404;2023-12-20T05:59:18;5.80;99.90
18880;DHT22;9572;52.378;13.404;2023-12-20T06:01:44;5.80;99.90
18880;DHT22;9572;52.378;13.404;2023-12-20T06:04:11;5.80;99.90
18880;DHT22;9572;52.378;13.404;2023-12-20T06:06:42;5.80;99.90
18880;DHT22;9572;52.378;13.404;2023-12-20T06:09:09;5.80;99.90
18880;DHT22;9572;52.378;13.404;2023-12-20T06:11:36;5.70;99.90
18880;DHT22;9572;52.378;13.404;2023-12-20T06:14:03;5.60;99.90
18880;DHT22;9572;52.378;13.404;2023-12-20T06:16:30;5.60;99.90
18880;DHT22;9572;52.378;13.404;2023-12-20T06:18:57;5.60;99.90
18880;DHT22;9572;52.378;13.404;2023-12-20T06:21:24;5.60;99.90
18880;DHT22;9572;52.378;13.404;2023-12-20T06:23:52;5.70;99.90
18880;DHT22;9572;52.378;13.404;2023-12-20T06:26:19;5.60;99.90
18880;DHT22;9572;52.378;13.404;2023-12-20T06:28:46;5.60;99.90
18880;DHT22;9572;52.378;13.404;2023-12-20T06:33:48;5.60;99.90
18880;DHT22;9572;52.378;13.404;2023-12-20T06:36:22;5.50;99.90
18880;DHT22;9572;52.378;13.404;2023-12-20T06:38:49;5.50;99.90
18880;DHT22;9572;52.378;13.404;2023-12-20T06:41:18;5.50;99.90
18880;DHT22;9572;52.378;13.404;2023-12-20T06:43:45;5.50;99.90
18880;DHT22;9572;52.378;13.404;2023-12-20T06:46:12;5.50;99.90
18880;DHT22;9572;52.378;13.404;2023-12-20T06:48:39;5.50;99.90
18880;DHT22;9572;52.378;13.404;2023-12-20T06:51:06;5.50;99.90
18880;DHT22;9572;52.378;13.404;2023-12-20T06:53:37;5.50;99.90
18880;DHT22;9572;52.378;13.404;2023-12-20T06:56:04;5.50;99.90
18880;DHT22;9572;52.378;13.404;2023-12-20T06:58:32;5.50;99.90
18880;DHT22;9572;52.378;13.404;2023-12-20T07:00:59;5.50;99.90
18880;DHT22;9572;52.378;13.404;2023-12-20T07:03:26;5.50;99.90
18880;DHT22;9572;52.378;13.404;2023-12-20T07:05:53;5.50;99.90
18880;DHT22;9572;52.378;13.404;2023-12-20T07:08:20;5.50;99.90
18880;DHT22;9572;52.378;13.404;2023-12-20T07:10:47;5.50;99.90
18880;DHT22;9572;52.378;13.404;2023-12-20T07:13:14;5.50;99.90
18880;DHT22;9572;52.378;13.404;2023-12-20T07:15:42;5.60;99.90
18880;DHT22;9572;52.378;13.404;2023-12-20T07:18:09;5.50;99.90
18880;DHT22;9572;52.378;13.404;2023-12-20T07:20:36;5.50;99.90
18880;DHT22;9572;52.378;13.404;2023-12-20T07:23:04;5.60;99.90
18880;DHT22;9572;52.378;13.404;2023-12-20T07:25:30;5.60;99.90
18880;DHT22;9572;52.378;13.404;2023-12-20T07:27:58;5.60;99.90
18880;DHT22;9572;52.378;13.404;2023-12-20T07:30:25;5.60;99.90
18880;DHT22;9572;52.378;13.404;2023-12-20T07:32:53;5.70;99.90
18880;DHT22;9572;52.378;13.404;2023-12-20T07:35:20;5.70;99.90
18880;DHT22;9572;52.378;13.404;2023-12-20T07:37:47;5.70;99.90
18880;DHT22;9572;52.378;13.404;2023-12-20T07:40:14;5.60;99.90
18880;DHT22;9572;52.378;13.404;2023-12-20T07:42:42;5.60;99.90
18880;DHT22;9572;52.378;13.404;2023-12-20T07:45:09;5.70;99.90
18880;DHT22;9572;52.378;13.404;2023-12-20T07:47:37;5.70;99.90
18880;DHT22;9572;52.378;13.404;2023-12-20T07:50:06;5.70;99.90
18880;DHT22;9572;52.378;13.404;2023-12-20T07:52:33;5.70;99.90
18880;DHT22;9572;52.378;13.404;2023-12-20T07:55:00;5.70;99.90
18880;DHT22;9572;52.378;13.404;2023-12-20T07:57:28;5.70;99.90
18880;DHT22;9572;52.378;13.404;2023-12-20T07:59:55;5.70;99.90
18880;DHT22;9572;52.378;13.404;2023-12-20T08:02:22;5.70;99.90
18880;DHT22;9572;52.378;13.404;2023-12-20T08:04:49;5.70;99.90
18880;DHT22;9572;52.378;13.404;2023-12-20T08:07:17;5.70;99.90
18880;DHT22;9572;52.378;13.404;2023-12-20T08:09:44;5.80;99.90
18880;DHT22;9572;52.378;13.404;2023-12-20T08:12:11;5.90;99.90
18880;DHT22;9572;52.378;13.404;2023-12-20T08:14:38;5.80;99.90
18880;DHT22;9572;52.378;13.404;2023-12-20T08:17:05;5.70;99.90
18880;DHT22;9572;52.378;13.404;2023-12-20T08:19:32;5.80;99.90
18880;DHT22;9572;52.378;13.404;2023-12-20T08:21:59;5.90;99.90
18880;DHT22;9572;52.378;13.404;2023-12-20T08:24:27;5.90;99.90
18880;DHT22;9572;52.378;13.404;2023-12-20T08:26:54;5.90;99.90
18880;DHT22;9572;52.378;13.404;2023-12-20T08:29:21;5.80;99.90
18880;DHT22;9572;52.378;13.404;2023-12-20T08:31:52;5.80;99.90
18880;DHT22;9572;52.378;13.404;2023-12-20T08:34:19;5.80;99.90
18880;DHT22;9572;52.378;13.404;2023-12-20T08:36:46;5.80;99.90
18880;DHT22;9572;52.378;13.404;2023-12-20T08:39:13;5.70;99.90
18880;DHT22;9572;52.378;13.404;2023-12-20T08:41:41;5.80;99.90
18880;DHT22;9572;52.378;13.404;2023-12-20T08:44:08;5.80;99.90
18880;DHT22;9572;52.378;13.404;2023-12-20T08:46:36;5.80;99.90
18880;DHT22;9572;52.378;13.404;2023-12-20T08:49:07;5.90;99.90
18880;DHT22;9572;52.378;13.404;2023-12-20T08:51:35;5.90;99.90
18880;DHT22;9572;52.378;13.404;2023-12-20T08:54:05;5.90;99.90
18880;DHT22;9572;52.378;13.404;2023-12-20T08:56:33;6.00;99.90
18880;DHT22;9572;52.378;13.404;2023-12-20T08:59:01;6.00;99.90
18880;DHT22;9572;52.378;13.404;2023-12-20T09:01:28;6.10;99.90
18880;DHT22;9572;52.378;13.404;2023-12-20T09:03:55;6.10;99.90
18880;DHT22;9572;52.378;13.404;2023-12-20T09:06:22;6.10;99.90
18880;DHT22;9572;52.378;13.404;2023-12-20T09:08:50;6.10;99.90
18880;DHT22;9572;52.378;13.404;2023-12-20T09:11:17;6.10;99.90
18880;DHT22;9572;52.378;13.404;2023-12-20T09:13:44;6.10;99.90
18880;DHT22;9572;52.378;13.404;2023-12-20T09:16:13;6.10;99.90
18880;DHT22;9572;52.378;13.404;2023-12-20T09:18:41;6.20;99.90
18880;DHT22;9572;52.378;13.404;2023-12-20T09:21:08;6.20;99.90
18880;DHT22;9572;52.378;13.404;2023-12-20T09:23:35;6.30;99.90
18880;DHT22;9572;52.378;13.404;2023-12-20T09:26:03;6.30;99.90
18880;DHT22;9572;52.378;13.404;2023-12-20T09:28:30;6.30;99.90
18880;DHT22;9572;52.378;13.404;2023-12-20T09:31:03;6.30;99.90
18880;DHT22;9572;52.378;13.404;2023-12-20T09:33:31;6.30;99.90
18880;DHT22;9572;52.378;13.404;2023-12-20T09:35:58;6.30;99.90
18880;DHT22;9572;52.378;13.404;2023-12-20T09:38:25;6.40;99.90
18880;DHT22;9572;52.378;13.404;2023-12-20T09:40:52;6.40;99.90
18880;DHT22;9572;52.378;13.404;2023-12-20T09:43:24;6.40;99.90
18880;DHT22;9572;52.378;13.404;2023-12-20T09:45:53;6.50;99.90
18880;DHT22;9572;52.378;13.404;2023-12-20T09:48:20;6.60;99.90
18880;DHT22;9572;52.378;13.404;2023-12-20T09:50:49;6.60;99.90
18880;DHT22;9572;52.378;13.404;2023-12-20T09:53:18;6.60;99.90
18880;DHT22;9572;52.378;13.404;2023-12-20T09:55:46;6.60;99.90
18880;DHT22;9572;52.378;13.404;2023-12-20T09:58:13;6.70;99.90
18880;DHT22;9572;52.378;13.404;2023-12-20T10:00:40;6.70;99.90
18880;DHT22;9572;52.378;13.404;2023-12-20T10:03:07;6.70;99.90
18880;DHT22;9572;52.378;13.404;2023-12-20T10:05:35;6.70;99.90
18880;DHT22;9572;52.378;13.404;2023-12-20T10:08:04;6.70;99.90
18880;DHT22;9572;52.378;13.404;2023-12-20T10:10:31;6.70;99.90
18880;DHT22;9572;52.378;13.404;2023-12-20T10:13:02;6.70;99.90
18880;DHT22;9572;52.378;13.404;2023-12-20T10:15:29;6.60;99.90
18880;DHT22;9572;52.378;13.404;2023-12-20T10:18:08;6.70;99.90
18880;DHT22;9572;52.378;13.404;2023-12-20T10:20:36;6.70;99.90
18880;DHT22;9572;52.378;13.404;2023-12-20T10:23:05;6.70;99.90
18880;DHT22;9572;52.378;13.404;2023-12-20T10:25:32;6.70;99.90
18880;DHT22;9572;52.378;13.404;2023-12-20T10:28:12;6.70;99.90
18880;DHT22;9572;52.378;13.404;2023-12-20T10:30:40;6.80;99.90
18880;DHT22;9572;52.378;13.404;2023-12-20T10:33:08;6.80;99.90
18880;DHT22;9572;52.378;13.404;2023-12-20T10:35:35;6.80;99.90
18880;DHT22;9572;52.378;13.404;2023-12-20T10:38:05;6.80;99.90
18880;DHT22;9572;52.378;13.404;2023-12-20T10:40:34;6.90;99.90
18880;DHT22;9572;52.378;13.404;2023-12-20T10:43:03;6.90;99.90
18880;DHT22;9572;52.378;13.404;2023-12-20T10:45:30;6.90;99.90
18880;DHT22;9572;52.378;13.404;2023-12-20T10:47:58;7.00;99.90
18880;DHT22;9572;52.378;13.404;2023-12-20T10:50:27;7.00;99.90
18880;DHT22;9572;52.378;13.404;2023-12-20T10:52:55;7.00;99.90
18880;DHT22;9572;52.378;13.404;2023-12-20T10:55:24;7.00;99.90
18880;DHT22;9572;52.378;13.404;2023-12-20T10:57:51;7.00;99.90
18880;DHT22;9572;52.378;13.404;2023-12-20T11:00:18;7.10;99.90
18880;DHT22;9572;52.378;13.404;2023-12-20T11:02:45;7.10;99.90
18880;DHT22;9572;52.378;13.404;2023-12-20T11:05:27;7.10;99.90
18880;DHT22;9572;52.378;13.404;2023-12-20T11:08:01;7.10;99.90
18880;DHT22;9572;52.378;13.404;2023-12-20T11:10:34;7.00;99.90
18880;DHT22;9572;52.378;13.404;2023-12-20T11:13:08;7.10;99.90
18880;DHT22;9572;52.378;13.404;2023-12-20T11:15:36;7.10;99.90
18880;DHT22;9572;52.378;13.404;2023-12-20T11:18:04;7.10;99.90
18880;DHT22;9572;52.378;13.404;2023-12-20T11:20:36;7.10;99.90
18880;DHT22;9572;52.378;13.404;2023-12-20T11:23:04;7.10;99.90
18880;DHT22;9572;52.378;13.404;2023-12-20T11:25:49;7.10;99.90
18880;DHT22;9572;52.378;13.404;2023-12-20T11:28:20;7.10;99.90
18880;DHT22;9572;52.378;13.404;2023-12-20T11:30:49;7.10;99.90
18880;DHT22;9572;52.378;13.404;2023-12-20T11:33:17;7.20;99.90
18880;DHT22;9572;52.378;13.404;2023-12-20T11:35:47;7.20;99.90
18880;DHT22;9572;52.378;13.404;2023-12-20T11:38:14;7.20;99.90
18880;DHT22;9572;52.378;13.404;2023-12-20T11:40:43;7.10;99.90
18880;DHT22;9572;52.378;13.404;2023-12-20T11:43:10;6.90;99.90
18880;DHT22;9572;52.378;13.404;2023-12-20T11:45:37;6.80;99.90
18880;DHT22;9572;52.378;13.404;2023-12-20T11:48:05;6.90;99.90
18880;DHT22;9572;52.378;13.404;2023-12-20T11:50:33;6.90;99.90
18880;DHT22;9572;52.378;13.404;2023-12-20T11:52:59;6.90;99.90
18880;DHT22;9572;52.378;13.404;2023-12-20T11:55:26;6.90;99.90
18880;DHT22;9572;52.378;13.404;2023-12-20T11:57:55;6.90;99.90
18880;DHT22;9572;52.378;13.404;2023-12-20T12:00:23;6.90;99.90
18880;DHT22;9572;52.378;13.404;2023-12-20T12:02:58;6.80;99.90
18880;DHT22;9572;52.378;13.404;2023-12-20T12:05:25;6.80;99.90
18880;DHT22;9572;52.378;13.404;2023-12-20T12:07:53;6.80;99.90
18880;DHT22;9572;52.378;13.404;2023-12-20T12:10:20;6.80;99.90
18880;DHT22;9572;52.378;13.404;2023-12-20T12:12:47;6.80;99.90
18880;DHT22;9572;52.378;13.404;2023-12-20T12:15:16;6.80;99.90
18880;DHT22;9572;52.378;13.404;2023-12-20T12:17:43;6.80;99.90
18880;DHT22;9572;52.378;13.404;2023-12-20T12:20:10;6.80;99.90
18880;DHT22;9572;52.378;13.404;2023-12-20T12:22:38;6.80;99.90
18880;DHT22;9572;52.378;13.404;2023-12-20T12:25:12;6.80;99.90
18880;DHT22;9572;52.378;13.404;2023-12-20T12:27:43;6.80;99.90
18880;DHT22;9572;52.378;13.404;2023-12-20T12:30:10;6.80;99.90
18880;DHT22;9572;52.378;13.404;2023-12-20T12:32:40;6.90;99.90
18880;DHT22;9572;52.378;13.404;2023-12-20T12:35:08;6.90;99.90
18880;DHT22;9572;52.378;13.404;2023-12-20T12:37:37;6.80;99.90
18880;DHT22;9572;52.378;13.404;2023-12-20T12:40:07;6.80;99.90
18880;DHT22;9572;52.378;13.404;2023-12-20T12:42:36;6.80;99.90
18880;DHT22;9572;52.378;13.404;2023-12-20T12:45:06;6.80;99.90
18880;DHT22;9572;52.378;13.404;2023-12-20T12:47:50;6.80;99.90
18880;DHT22;9572;52.378;13.404;2023-12-20T12:50:20;6.80;99.90
18880;DHT22;9572;52.378;13.404;2023-12-20T12:52:47;6.70;99.90
18880;DHT22;9572;52.378;13.404;2023-12-20T12:55:16;6.70;99.90
18880;DHT22;9572;52.378;13.404;2023-12-20T12:57:47;6.70;99.90
18880;DHT22;9572;52.378;13.404;2023-12-20T13:00:18;6.60;99.90
18880;DHT22;9572;52.378;13.404;2023-12-20T13:02:49;6.60;99.90
18880;DHT22;9572;52.378;13.404;2023-12-20T13:05:17;6.60;99.90
18880;DHT22;9572;52.378;13.404;2023-12-20T13:07:47;6.60;99.90
18880;DHT22;9572;52.378;13.404;2023-12-20T13:10:17;6.60;99.90
18880;DHT22;9572;52.378;13.404;2023-12-20T13:12:48;6.60;99.90
18880;DHT22;9572;52.378;13.404;2023-12-20T13:15:15;6.60;99.90
18880;DHT22;9572;52.378;13.404;2023-12-20T13:17:51;6.50;99.90
18880;DHT22;9572;52.378;13.404;2023-12-20T13:20:18;6.50;99.90
18880;DHT22;9572;52.378;13.404;2023-12-20T13:22:47;6.50;99.90
18880;DHT22;9572;52.378;13.404;2023-12-20T13:25:18;6.50;99.90
18880;DHT22;9572;52.378;13.404;2023-12-20T13:27:47;6.50;99.90
18880;DHT22;9572;52.378;13.404;2023-12-20T13:30:18;6.50;99.90
18880;DHT22;9572;52.378;13.404;2023-12-20T13:32:45;6.40;99.90
18880;DHT22;9572;52.378;13.404;2023-12-20T13:35:13;6.40;99.90
18880;DHT22;9572;52.378;13.404;2023-12-20T13:37:40;6.30;99.90
18880;DHT22;9572;52.378;13.404;2023-12-20T13:40:08;6.30;99.90
18880;DHT22;9572;52.378;13.404;2023-12-20T13:42:36;6.30;99.90
18880;DHT22;9572;52.378;13.404;2023-12-20T13:45:04;6.20;99.90
18880;DHT22;9572;52.378;13.404;2023-12-20T13:47:31;6.20;99.90
18880;DHT22;9572;52.378;13.404;2023-12-20T13:49:58;6.20;99.90
18880;DHT22;9572;52.378;13.404;2023-12-20T13:52:29;6.00;99.90
18880;DHT22;9572;52.378;13.404;2023-12-20T13:54:57;5.80;99.90
18880;DHT22;9572;52.378;13.404;2023-12-20T13:57:24;5.70;99.90
18880;DHT22;9572;52.378;13.404;2023-12-20T13:59:51;5.70;99.90
18880;DHT22;9572;52.378;13.404;2023-12-20T14:02:18;5.60;99.90
18880;DHT22;9572;52.378;13.404;2023-12-20T14:04:46;5.60;99.90
18880;DHT22;9572;52.378;13.404;2023-12-20T14:07:13;5.60;99.90
18880;DHT22;9572;52.378;13.404;2023-12-20T14:09:42;5.50;99.90
18880;DHT22;9572;52.378;13.404;2023-12-20T14:12:11;5.40;99.90
18880;DHT22;9572;52.378;13.404;2023-12-20T14:15:09;5.40;99.90
18880;DHT22;9572;52.378;13.404;2023-12-20T14:17:38;5.30;99.90
18880;DHT22;9572;52.378;13.404;2023-12-20T14:20:06;5.20;99.90
18880;DHT22;9572;52.378;13.404;2023-12-20T14:22:34;5.20;99.90
18880;DHT22;9572;52.378;13.404;2023-12-20T14:25:03;5.20;99.90
18880;DHT22;9572;52.378;13.404;2023-12-20T14:27:29;5.10;99.90
18880;DHT22;9572;52.378;13.404;2023-12-20T14:29:56;5.10;99.90
18880;DHT22;9572;52.378;13.404;2023-12-20T14:32:24;5.20;99.90
18880;DHT22;9572;52.378;13.404;2023-12-20T14:34:52;5.20;99.90
18880;DHT22;9572;52.378;13.404;2023-12-20T14:37:20;5.10;99.90
18880;DHT22;9572;52.378;13.404;2023-12-20T14:39:48;5.10;99.90
18880;DHT22;9572;52.378;13.404;2023-12-20T14:42:17;5.00;99.90
18880;DHT22;9572;52.378;13.404;2023-12-20T14:44:44;5.00;99.90
18880;DHT22;9572;52.378;13.404;2023-12-20T14:47:12;5.10;99.90
18880;DHT22;9572;52.378;13.404;2023-12-20T14:49:40;5.10;99.90
18880;DHT22;9572;52.378;13.404;2023-12-20T14:52:08;5.10;99.90
18880;DHT22;9572;52.378;13.404;2023-12-20T14:54:36;5.10;99.90
18880;DHT22;9572;52.378;13.404;2023-12-20T14:57:04;5.20;99.90
18880;DHT22;9572;52.378;13.404;2023-12-20T14:59:32;5.30;99.90
18880;DHT22;9572;52.378;13.404;2023-12-20T15:01:59;5.30;99.90
18880;DHT22;9572;52.378;13.404;2023-12-20T15:04:28;5.30;99.90
18880;DHT22;9572;52.378;13.404;2023-12-20T15:06:55;5.30;99.90
18880;DHT22;9572;52.378;13.404;2023-12-20T15:09:22;5.40;99.90
18880;DHT22;9572;52.378;13.404;2023-12-20T15:11:49;5.40;99.90
18880;DHT22;9572;52.378;13.404;2023-12-20T15:14:16;5.40;99.90
18880;DHT22;9572;52.378;13.404;2023-12-20T15:16:46;5.40;99.90
18880;DHT22;9572;52.378;13.404;2023-12-20T15:19:14;5.40;99.90
18880;DHT22;9572;52.378;13.404;2023-12-20T15:21:41;5.40;99.90
18880;DHT22;9572;52.378;13.404;2023-12-20T15:24:08;5.40;99.90
18880;DHT22;9572;52.378;13.404;2023-12-20T15:26:41;5.40;99.90
18880;DHT22;9572;52.378;13.404;2023-12-20T15:29:08;5.40;99.90
18880;DHT22;9572;52.378;13.404;2023-12-20T15:31:36;5.30;99.90
18880;DHT22;9572;52.378;13.404;2023-12-20T15:34:04;5.20;99.90
18880;DHT22;9572;52.378;13.404;2023-12-20T15:36:31;5.30;99.90
18880;DHT22;9572;52.378;13.404;2023-12-20T15:38:58;5.20;99.90
18880;DHT22;9572;52.378;13.404;2023-12-20T15:41:25;5.20;99.90
18880;DHT22;9572;52.378;13.404;2023-12-20T15:43:53;5.20;99.90
18880;DHT22;9572;52.378;13.404;2023-12-20T15:46:20;5.10;99.90
18880;DHT22;9572;52.378;13.404;2023-12-20T15:48:47;5.20;99.90
18880;DHT22;9572;52.378;13.404;2023-12-20T15:51:16;5.20;99.90